sensor_id;sensor_type;location;lat;lon;timestamp;pressure;altitude;pressure_sealevel;temperature;humidity
80568;BME280;69922;45.656;25.586;2024-03-07T00:00:46;95105.59;;;4.42;65.39
80568;BME280;69922;45.656;25.586;2024-03-07T00:02:10;95103.19;;;4.40;65.54
80568;BME280;69922;45.656;25.586;2024-03-07T00:03:17;95103.46;;;4.38;65.68
80568;BME280;69922;45.656;25.586;2024-03-07T00:04:24;95102.54;;;4.37;65.62
80568;BME280;69922;45.656;25.586;2024-03-07T00:05:31;95099.91;;;4.36;65.72
80568;BME280;69922;45.656;25.586;2024-03-07T00:06:38;95102.52;;;4.35;65.70
80568;BME280;69922;45.656;25.586;2024-03-07T00:07:45;95101.98;;;4.35;65.70
80568;BME280;69922;45.656;25.586;2024-03-07T00:08:53;95104.10;;;4.34;65.53
80568;BME280;69922;45.656;25.586;2024-03-07T00:10:02;95102.33;;;4.33;65.57
80568;BME280;69922;45.656;25.586;2024-03-07T00:11:10;95099.10;;;4.32;65.78
80568;BME280;69922;45.656;25.586;2024-03-07T00:12:17;95102.30;;;4.31;66.09
80568;BME280;69922;45.656;25.586;2024-03-07T00:13:24;95103.17;;;4.30;65.95
80568;BME280;69922;45.656;25.586;2024-03-07T00:14:31;95102.58;;;4.30;66.21
80568;BME280;69922;45.656;25.586;2024-03-07T00:15:38;95102.11;;;4.28;66.02
80568;BME280;69922;45.656;25.586;2024-03-07T00:16:47;95104.93;;;4.27;66.00
80568;BME280;69922;45.656;25.586;2024-03-07T00:17:54;95102.85;;;4.25;66.21
80568;BME280;69922;45.656;25.586;2024-03-07T00:19:01;95104.15;;;4.24;66.32
80568;BME280;69922;45.656;25.586;2024-03-07T00:20:10;95102.96;;;4.23;65.84
80568;BME280;69922;45.656;25.586;2024-03-07T00:21:26;95104.38;;;4.22;66.22
80568;BME280;69922;45.656;25.586;2024-03-07T00:22:33;95103.43;;;4.21;66.05
80568;BME280;69922;45.656;25.586;2024-03-07T00:23:40;95104.63;;;4.20;66.12
80568;BME280;69922;45.656;25.586;2024-03-07T00:24:46;95106.15;;;4.19;66.41
80568;BME280;69922;45.656;25.586;2024-03-07T00:25:53;95104.53;;;4.18;66.11
80568;BME280;69922;45.656;25.586;2024-03-07T00:26:59;95104.54;;;4.17;66.25
80568;BME280;69922;45.656;25.586;2024-03-07T00:28:07;95104.81;;;4.17;66.51
80568;BME280;69922;45.656;25.586;2024-03-07T00:29:14;95102.83;;;4.16;66.01
80568;BME280;69922;45.656;25.586;2024-03-07T00:30:23;95101.76;;;4.15;66.34
80568;BME280;69922;45.656;25.586;2024-03-07T00:31:30;95101.27;;;4.15;66.15
80568;BME280;69922;45.656;25.586;2024-03-07T00:32:37;95102.52;;;4.14;66.47
80568;BME280;69922;45.656;25.586;2024-03-07T00:33:46;95103.61;;;4.13;66.34
80568;BME280;69922;45.656;25.586;2024-03-07T00:35:13;95102.65;;;4.11;66.29
80568;BME280;69922;45.656;25.586;2024-03-07T00:36:20;95102.62;;;4.10;66.68
80568;BME280;69922;45.656;25.586;2024-03-07T00:37:28;95103.00;;;4.08;66.42
80568;BME280;69922;45.656;25.586;2024-03-07T00:38:36;95101.59;;;4.08;66.32
80568;BME280;69922;45.656;25.586;2024-03-07T00:39:43;95103.33;;;4.08;66.49
80568;BME280;69922;45.656;25.586;2024-03-07T00:40:51;95104.20;;;4.07;66.53
80568;BME280;69922;45.656;25.586;2024-03-07T00:41:57;95103.24;;;4.06;66.62
80568;BME280;69922;45.656;25.586;2024-03-07T00:43:04;95104.00;;;4.07;66.46
80568;BME280;69922;45.656;25.586;2024-03-07T00:44:12;95102.86;;;4.06;66.64
80568;BME280;69922;45.656;25.586;2024-03-07T00:45:19;95100.64;;;4.07;66.51
80568;BME280;69922;45.656;25.586;2024-03-07T00:46:25;95099.34;;;4.07;66.04
80568;BME280;69922;45.656;25.586;2024-03-07T00:47:32;95101.23;;;4.07;66.34
80568;BME280;69922;45.656;25.586;2024-03-07T00:48:39;95098.64;;;4.07;66.32
80568;BME280;69922;45.656;25.586;2024-03-07T00:49:46;95096.16;;;4.07;66.05
80568;BME280;69922;45.656;25.586;2024-03-07T00:50:53;95096.82;;;4.06;65.83
80568;BME280;69922;45.656;25.586;2024-03-07T00:52:00;95098.15;;;4.06;66.00
80568;BME280;69922;45.656;25.586;2024-03-07T00:53:07;95095.52;;;4.06;66.07
80568;BME280;69922;45.656;25.586;2024-03-07T00:54:13;95098.00;;;4.06;65.76
80568;BME280;69922;45.656;25.586;2024-03-07T00:55:21;95096.75;;;4.06;65.87
80568;BME280;69922;45.656;25.586;2024-03-07T00:56:27;95098.86;;;4.06;65.89
80568;BME280;69922;45.656;25.586;2024-03-07T00:57:35;95101.29;;;4.07;65.56
80568;BME280;69922;45.656;25.586;2024-03-07T00:58:42;95099.13;;;4.07;65.77
80568;BME280;69922;45.656;25.586;2024-03-07T00:59:49;95099.08;;;4.07;66.02
80568;BME280;69922;45.656;25.586;2024-03-07T01:00:55;95096.53;;;4.07;66.13
80568;BME280;69922;45.656;25.586;2024-03-07T01:02:03;95097.34;;;4.07;66.29
80568;BME280;69922;45.656;25.586;2024-03-07T01:03:09;95096.64;;;4.07;66.35
80568;BME280;69922;45.656;25.586;2024-03-07T01:04:20;95097.46;;;4.06;66.41
80568;BME280;69922;45.656;25.586;2024-03-07T01:05:28;95097.17;;;4.07;66.29
80568;BME280;69922;45.656;25.586;2024-03-07T01:06:34;95095.52;;;4.06;66.67
80568;BME280;69922;45.656;25.586;2024-03-07T01:07:42;95092.49;;;4.06;66.17
80568;BME280;69922;45.656;25.586;2024-03-07T01:08:50;95092.11;;;4.06;66.44
80568;BME280;69922;45.656;25.586;2024-03-07T01:09:58;95092.65;;;4.06;65.99
80568;BME280;69922;45.656;25.586;2024-03-07T01:11:07;95096.17;;;4.05;66.10
80568;BME280;69922;45.656;25.586;2024-03-07T01:12:18;95093.15;;;4.05;66.16
80568;BME280;69922;45.656;25.586;2024-03-07T01:13:28;95095.25;;;4.04;66.03
80568;BME280;69922;45.656;25.586;2024-03-07T01:14:36;95094.39;;;4.04;65.82
80568;BME280;69922;45.656;25.586;2024-03-07T01:15:43;95092.34;;;4.04;65.69
80568;BME280;69922;45.656;25.586;2024-03-07T01:16:49;95093.86;;;4.03;65.62
80568;BME280;69922;45.656;25.586;2024-03-07T01:17:56;95092.99;;;4.03;65.87
80568;BME280;69922;45.656;25.586;2024-03-07T01:19:04;95095.91;;;4.03;65.96
80568;BME280;69922;45.656;25.586;2024-03-07T01:20:12;95093.02;;;4.02;65.72
80568;BME280;69922;45.656;25.586;2024-03-07T01:21:19;95089.88;;;4.02;65.76
80568;BME280;69922;45.656;25.586;2024-03-07T01:22:26;95090.96;;;4.01;65.74
80568;BME280;69922;45.656;25.586;2024-03-07T01:23:33;95089.85;;;4.00;65.44
80568;BME280;69922;45.656;25.586;2024-03-07T01:24:40;95089.30;;;3.99;65.23
80568;BME280;69922;45.656;25.586;2024-03-07T01:25:46;95087.27;;;3.98;65.52
80568;BME280;69922;45.656;25.586;2024-03-07T01:26:53;95092.14;;;3.97;65.03
80568;BME280;69922;45.656;25.586;2024-03-07T01:28:00;95091.98;;;3.96;65.37
80568;BME280;69922;45.656;25.586;2024-03-07T01:29:06;95088.59;;;3.95;65.21
80568;BME280;69922;45.656;25.586;2024-03-07T01:30:14;95089.57;;;3.94;65.35
80568;BME280;69922;45.656;25.586;2024-03-07T01:31:22;95089.37;;;3.93;65.16
80568;BME280;69922;45.656;25.586;2024-03-07T01:32:28;95088.06;;;3.92;64.91
80568;BME280;69922;45.656;25.586;2024-03-07T01:33:35;95091.49;;;3.91;64.93
80568;BME280;69922;45.656;25.586;2024-03-07T01:34:42;95087.02;;;3.90;64.86
80568;BME280;69922;45.656;25.586;2024-03-07T01:35:49;95084.76;;;3.89;64.96
80568;BME280;69922;45.656;25.586;2024-03-07T01:36:56;95085.58;;;3.88;64.99
80568;BME280;69922;45.656;25.586;2024-03-07T01:38:03;95085.96;;;3.87;64.79
80568;BME280;69922;45.656;25.586;2024-03-07T01:39:10;95085.00;;;3.86;64.48
80568;BME280;69922;45.656;25.586;2024-03-07T01:40:17;95085.88;;;3.85;64.77
80568;BME280;69922;45.656;25.586;2024-03-07T01:41:24;95089.02;;;3.83;64.62
80568;BME280;69922;45.656;25.586;2024-03-07T01:42:30;95085.04;;;3.81;64.76
80568;BME280;69922;45.656;25.586;2024-03-07T01:43:37;95087.54;;;3.82;64.58
80568;BME280;69922;45.656;25.586;2024-03-07T01:44:43;95083.59;;;3.81;64.83
80568;BME280;69922;45.656;25.586;2024-03-07T01:45:53;95086.19;;;3.79;64.91
80568;BME280;69922;45.656;25.586;2024-03-07T01:47:01;95084.21;;;3.77;64.64
80568;BME280;69922;45.656;25.586;2024-03-07T01:48:11;95085.14;;;3.77;64.92
80568;BME280;69922;45.656;25.586;2024-03-07T01:49:20;95083.20;;;3.76;64.81
80568;BME280;69922;45.656;25.586;2024-03-07T01:50:27;95081.46;;;3.74;65.34
80568;BME280;69922;45.656;25.586;2024-03-07T01:51:34;95083.38;;;3.73;64.80
80568;BME280;69922;45.656;25.586;2024-03-07T01:52:42;95079.56;;;3.71;65.25
80568;BME280;69922;45.656;25.586;2024-03-07T01:53:50;95084.91;;;3.70;65.38
80568;BME280;69922;45.656;25.586;2024-03-07T01:54:58;95083.64;;;3.68;65.43
80568;BME280;69922;45.656;25.586;2024-03-07T01:56:07;95082.41;;;3.66;65.56
80568;BME280;69922;45.656;25.586;2024-03-07T01:57:13;95083.66;;;3.64;65.72
80568;BME280;69922;45.656;25.586;2024-03-07T01:58:22;95081.48;;;3.61;65.94
80568;BME280;69922;45.656;25.586;2024-03-07T01:59:30;95078.70;;;3.59;66.27
80568;BME280;69922;45.656;25.586;2024-03-07T02:00:38;95080.92;;;3.57;66.06
80568;BME280;69922;45.656;25.586;2024-03-07T02:01:45;95079.15;;;3.54;66.23
80568;BME280;69922;45.656;25.586;2024-03-07T02:02:54;95079.89;;;3.52;66.31
80568;BME280;69922;45.656;25.586;2024-03-07T02:04:01;95078.23;;;3.49;66.74
80568;BME280;69922;45.656;25.586;2024-03-07T02:05:09;95079.38;;;3.46;66.46
80568;BME280;69922;45.656;25.586;2024-03-07T02:06:16;95079.35;;;3.43;66.61
80568;BME280;69922;45.656;25.586;2024-03-07T02:07:23;95079.09;;;3.40;66.68
80568;BME280;69922;45.656;25.586;2024-03-07T02:08:30;95078.15;;;3.38;67.09
80568;BME280;69922;45.656;25.586;2024-03-07T02:09:38;95082.75;;;3.35;66.95
80568;BME280;69922;45.656;25.586;2024-03-07T02:10:45;95086.33;;;3.32;67.01
80568;BME280;69922;45.656;25.586;2024-03-07T02:11:52;95083.06;;;3.31;67.00
80568;BME280;69922;45.656;25.586;2024-03-07T02:12:59;95083.67;;;3.28;67.14
80568;BME280;69922;45.656;25.586;2024-03-07T02:14:07;95088.05;;;3.26;67.01
80568;BME280;69922;45.656;25.586;2024-03-07T02:15:14;95084.88;;;3.24;67.45
80568;BME280;69922;45.656;25.586;2024-03-07T02:16:21;95084.67;;;3.22;67.11
80568;BME280;69922;45.656;25.586;2024-03-07T02:17:28;95085.45;;;3.20;67.13
80568;BME280;69922;45.656;25.586;2024-03-07T02:18:37;95086.20;;;3.19;67.27
80568;BME280;69922;45.656;25.586;2024-03-07T02:19:44;95088.17;;;3.17;67.40
80568;BME280;69922;45.656;25.586;2024-03-07T02:20:53;95083.80;;;3.15;67.50
80568;BME280;69922;45.656;25.586;2024-03-07T02:22:01;95085.64;;;3.14;67.65
80568;BME280;69922;45.656;25.586;2024-03-07T02:23:07;95087.33;;;3.13;67.67
80568;BME280;69922;45.656;25.586;2024-03-07T02:24:14;95088.45;;;3.11;67.84
80568;BME280;69922;45.656;25.586;2024-03-07T02:25:22;95085.25;;;3.09;67.67
80568;BME280;69922;45.656;25.586;2024-03-07T02:26:28;95085.67;;;3.08;67.95
80568;BME280;69922;45.656;25.586;2024-03-07T02:27:36;95086.71;;;3.07;67.95
80568;BME280;69922;45.656;25.586;2024-03-07T02:28:43;95090.71;;;3.05;67.93
80568;BME280;69922;45.656;25.586;2024-03-07T02:29:49;95092.23;;;3.03;67.89
80568;BME280;69922;45.656;25.586;2024-03-07T02:30:57;95093.15;;;3.02;68.16
80568;BME280;69922;45.656;25.586;2024-03-07T02:32:04;95095.90;;;3.02;68.03
80568;BME280;69922;45.656;25.586;2024-03-07T02:33:11;95095.43;;;3.00;67.92
80568;BME280;69922;45.656;25.586;2024-03-07T02:34:19;95097.60;;;2.99;68.04
80568;BME280;69922;45.656;25.586;2024-03-07T02:35:25;95100.35;;;2.99;68.13
80568;BME280;69922;45.656;25.586;2024-03-07T02:36:32;95097.66;;;2.98;68.19
80568;BME280;69922;45.656;25.586;2024-03-07T02:37:39;95097.88;;;2.98;68.28
80568;BME280;69922;45.656;25.586;2024-03-07T02:38:46;95099.81;;;2.97;68.13
80568;BME280;69922;45.656;25.586;2024-03-07T02:39:53;95103.96;;;2.97;68.42
80568;BME280;69922;45.656;25.586;2024-03-07T02:41:00;95101.98;;;2.96;68.26
80568;BME280;69922;45.656;25.586;2024-03-07T02:42:08;95101.17;;;2.96;68.13
80568;BME280;69922;45.656;25.586;2024-03-07T02:43:14;95103.70;;;2.96;68.07
80568;BME280;69922;45.656;25.586;2024-03-07T02:44:22;95105.54;;;2.96;68.28
80568;BME280;69922;45.656;25.586;2024-03-07T02:45:28;95100.75;;;2.96;68.21
80568;BME280;69922;45.656;25.586;2024-03-07T02:46:36;95106.67;;;2.96;68.37
80568;BME280;69922;45.656;25.586;2024-03-07T02:47:44;95106.63;;;2.96;68.26
80568;BME280;69922;45.656;25.586;2024-03-07T02:48:51;95105.60;;;2.96;68.02
80568;BME280;69922;45.656;25.586;2024-03-07T02:49:58;95104.78;;;2.96;68.19
80568;BME280;69922;45.656;25.586;2024-03-07T02:51:05;95102.85;;;2.96;67.98
80568;BME280;69922;45.656;25.586;2024-03-07T02:52:15;95103.38;;;2.97;68.20
80568;BME280;69922;45.656;25.586;2024-03-07T02:53:22;95103.97;;;2.98;67.98
80568;BME280;69922;45.656;25.586;2024-03-07T02:54:28;95107.63;;;3.00;68.01
80568;BME280;69922;45.656;25.586;2024-03-07T02:55:35;95105.14;;;3.00;68.17
80568;BME280;69922;45.656;25.586;2024-03-07T02:56:41;95107.52;;;3.02;68.20
80568;BME280;69922;45.656;25.586;2024-03-07T02:57:48;95105.50;;;3.03;68.15
80568;BME280;69922;45.656;25.586;2024-03-07T02:58:55;95104.37;;;3.05;68.26
80568;BME280;69922;45.656;25.586;2024-03-07T03:00:02;95102.20;;;3.06;68.29
80568;BME280;69922;45.656;25.586;2024-03-07T03:01:09;95104.62;;;3.06;67.98
80568;BME280;69922;45.656;25.586;2024-03-07T03:02:17;95105.48;;;3.06;68.44
80568;BME280;69922;45.656;25.586;2024-03-07T03:03:24;95107.75;;;3.07;68.23
80568;BME280;69922;45.656;25.586;2024-03-07T03:04:31;95107.27;;;3.07;68.35
80568;BME280;69922;45.656;25.586;2024-03-07T03:05:38;95111.80;;;3.06;68.18
80568;BME280;69922;45.656;25.586;2024-03-07T03:06:45;95112.33;;;3.06;68.35
80568;BME280;69922;45.656;25.586;2024-03-07T03:07:52;95111.74;;;3.06;68.34
80568;BME280;69922;45.656;25.586;2024-03-07T03:09:00;95109.75;;;3.07;68.39
80568;BME280;69922;45.656;25.586;2024-03-07T03:10:08;95113.69;;;3.07;68.44
80568;BME280;69922;45.656;25.586;2024-03-07T03:11:16;95111.63;;;3.06;68.31
80568;BME280;69922;45.656;25.586;2024-03-07T03:12:23;95115.52;;;3.05;68.67
80568;BME280;69922;45.656;25.586;2024-03-07T03:13:29;95116.13;;;3.05;68.23
80568;BME280;69922;45.656;25.586;2024-03-07T03:14:36;95117.14;;;3.05;68.00
80568;BME280;69922;45.656;25.586;2024-03-07T03:15:43;95112.17;;;3.05;68.64
80568;BME280;69922;45.656;25.586;2024-03-07T03:16:50;95113.20;;;3.04;68.21
80568;BME280;69922;45.656;25.586;2024-03-07T03:17:56;95115.20;;;3.04;68.54
80568;BME280;69922;45.656;25.586;2024-03-07T03:19:06;95112.51;;;3.04;68.55
80568;BME280;69922;45.656;25.586;2024-03-07T03:20:15;95113.20;;;3.03;68.83
80568;BME280;69922;45.656;25.586;2024-03-07T03:21:32;95111.77;;;3.02;68.79
80568;BME280;69922;45.656;25.586;2024-03-07T03:22:40;95113.92;;;3.02;68.68
80568;BME280;69922;45.656;25.586;2024-03-07T03:23:50;95114.20;;;3.02;68.76
80568;BME280;69922;45.656;25.586;2024-03-07T03:24:57;95114.89;;;3.02;68.91
80568;BME280;69922;45.656;25.586;2024-03-07T03:26:04;95112.79;;;3.02;68.27
80568;BME280;69922;45.656;25.586;2024-03-07T03:27:11;95109.07;;;3.01;68.75
80568;BME280;69922;45.656;25.586;2024-03-07T03:28:18;95110.42;;;3.02;68.58
80568;BME280;69922;45.656;25.586;2024-03-07T03:29:27;95113.06;;;3.01;69.00
80568;BME280;69922;45.656;25.586;2024-03-07T03:30:34;95113.23;;;3.01;68.89
80568;BME280;69922;45.656;25.586;2024-03-07T03:31:41;95112.37;;;3.01;68.83
80568;BME280;69922;45.656;25.586;2024-03-07T03:32:49;95110.80;;;3.01;68.93
80568;BME280;69922;45.656;25.586;2024-03-07T03:33:56;95109.88;;;3.01;68.97
80568;BME280;69922;45.656;25.586;2024-03-07T03:35:02;95108.96;;;3.01;68.68
80568;BME280;69922;45.656;25.586;2024-03-07T03:36:10;95104.38;;;3.02;68.87
80568;BME280;69922;45.656;25.586;2024-03-07T03:37:17;95107.71;;;3.02;68.93
80568;BME280;69922;45.656;25.586;2024-03-07T03:38:24;95104.27;;;3.02;68.63
80568;BME280;69922;45.656;25.586;2024-03-07T03:39:32;95108.80;;;3.02;69.03
80568;BME280;69922;45.656;25.586;2024-03-07T03:40:39;95109.55;;;3.03;68.59
80568;BME280;69922;45.656;25.586;2024-03-07T03:41:46;95108.27;;;3.03;68.76
80568;BME280;69922;45.656;25.586;2024-03-07T03:42:53;95111.65;;;3.03;68.63
80568;BME280;69922;45.656;25.586;2024-03-07T03:43:59;95109.86;;;3.03;68.79
80568;BME280;69922;45.656;25.586;2024-03-07T03:45:08;95111.55;;;3.02;68.83
80568;BME280;69922;45.656;25.586;2024-03-07T03:46:15;95109.88;;;3.02;68.57
80568;BME280;69922;45.656;25.586;2024-03-07T03:47:22;95109.78;;;3.01;68.62
80568;BME280;69922;45.656;25.586;2024-03-07T03:48:29;95110.80;;;3.01;68.95
80568;BME280;69922;45.656;25.586;2024-03-07T03:49:35;95112.15;;;3.00;68.53
80568;BME280;69922;45.656;25.586;2024-03-07T03:50:42;95110.80;;;3.00;68.87
80568;BME280;69922;45.656;25.586;2024-03-07T03:51:48;95109.95;;;3.00;68.93
80568;BME280;69922;45.656;25.586;2024-03-07T03:52:55;95110.27;;;3.00;68.75
80568;BME280;69922;45.656;25.586;2024-03-07T03:54:01;95112.58;;;3.00;68.93
80568;BME280;69922;45.656;25.586;2024-03-07T03:55:10;95110.92;;;2.99;68.55
80568;BME280;69922;45.656;25.586;2024-03-07T03:56:17;95111.02;;;3.00;68.76
80568;BME280;69922;45.656;25.586;2024-03-07T03:57:25;95115.39;;;2.99;68.78
80568;BME280;69922;45.656;25.586;2024-03-07T03:58:32;95114.15;;;2.99;68.82
80568;BME280;69922;45.656;25.586;2024-03-07T03:59:44;95113.39;;;3.00;68.91
80568;BME280;69922;45.656;25.586;2024-03-07T04:00:53;95116.91;;;3.00;68.83
80568;BME280;69922;45.656;25.586;2024-03-07T04:02:00;95115.39;;;3.00;68.53
80568;BME280;69922;45.656;25.586;2024-03-07T04:03:06;95112.48;;;3.00;68.70
80568;BME280;69922;45.656;25.586;2024-03-07T04:04:14;95109.98;;;3.01;68.52
80568;BME280;69922;45.656;25.586;2024-03-07T04:05:21;95112.04;;;3.02;68.79
80568;BME280;69922;45.656;25.586;2024-03-07T04:06:28;95108.74;;;3.02;68.30
80568;BME280;69922;45.656;25.586;2024-03-07T04:07:34;95111.98;;;3.03;68.33
80568;BME280;69922;45.656;25.586;2024-03-07T04:08:42;95112.19;;;3.03;68.98
80568;BME280;69922;45.656;25.586;2024-03-07T04:09:49;95111.00;;;3.04;68.55
80568;BME280;69922;45.656;25.586;2024-03-07T04:10:57;95110.99;;;3.04;68.59
80568;BME280;69922;45.656;25.586;2024-03-07T04:12:04;95108.66;;;3.04;68.64
80568;BME280;69922;45.656;25.586;2024-03-07T04:13:11;95112.06;;;3.05;68.68
80568;BME280;69922;45.656;25.586;2024-03-07T04:14:18;95112.29;;;3.05;68.71
80568;BME280;69922;45.656;25.586;2024-03-07T04:15:27;95110.83;;;3.05;68.68
80568;BME280;69922;45.656;25.586;2024-03-07T04:16:40;95110.70;;;3.06;68.95
80568;BME280;69922;45.656;25.586;2024-03-07T04:17:47;95111.53;;;3.07;68.74
80568;BME280;69922;45.656;25.586;2024-03-07T04:18:54;95114.02;;;3.07;68.78
80568;BME280;69922;45.656;25.586;2024-03-07T04:20:02;95116.16;;;3.08;68.54
80568;BME280;69922;45.656;25.586;2024-03-07T04:21:17;95115.30;;;3.08;68.81
80568;BME280;69922;45.656;25.586;2024-03-07T04:22:23;95119.29;;;3.10;68.85
80568;BME280;69922;45.656;25.586;2024-03-07T04:23:30;95120.84;;;3.10;68.52
80568;BME280;69922;45.656;25.586;2024-03-07T04:24:37;95118.20;;;3.11;68.50
80568;BME280;69922;45.656;25.586;2024-03-07T04:25:44;95120.40;;;3.12;68.26
80568;BME280;69922;45.656;25.586;2024-03-07T04:26:50;95119.00;;;3.12;68.46
80568;BME280;69922;45.656;25.586;2024-03-07T04:28:00;95118.88;;;3.13;68.45
80568;BME280;69922;45.656;25.586;2024-03-07T04:29:06;95121.20;;;3.14;68.18
80568;BME280;69922;45.656;25.586;2024-03-07T04:30:15;95120.92;;;3.15;68.26
80568;BME280;69922;45.656;25.586;2024-03-07T04:31:23;95121.08;;;3.15;68.45
80568;BME280;69922;45.656;25.586;2024-03-07T04:32:30;95124.00;;;3.15;68.47
80568;BME280;69922;45.656;25.586;2024-03-07T04:33:36;95119.55;;;3.13;68.25
80568;BME280;69922;45.656;25.586;2024-03-07T04:34:43;95123.32;;;3.12;68.48
80568;BME280;69922;45.656;25.586;2024-03-07T04:35:50;95126.89;;;3.09;68.46
80568;BME280;69922;45.656;25.586;2024-03-07T04:36:58;95127.02;;;3.08;68.47
80568;BME280;69922;45.656;25.586;2024-03-07T04:38:07;95128.21;;;3.05;68.58
80568;BME280;69922;45.656;25.586;2024-03-07T04:39:18;95131.30;;;3.03;68.45
80568;BME280;69922;45.656;25.586;2024-03-07T04:40:34;95126.58;;;2.99;68.75
80568;BME280;69922;45.656;25.586;2024-03-07T04:41:41;95129.29;;;2.96;68.44
80568;BME280;69922;45.656;25.586;2024-03-07T04:42:48;95136.40;;;2.94;68.71
80568;BME280;69922;45.656;25.586;2024-03-07T04:43:56;95136.20;;;2.91;68.63
80568;BME280;69922;45.656;25.586;2024-03-07T04:45:03;95136.76;;;2.88;68.76
80568;BME280;69922;45.656;25.586;2024-03-07T04:46:11;95135.63;;;2.86;68.79
80568;BME280;69922;45.656;25.586;2024-03-07T04:47:18;95136.71;;;2.84;68.55
80568;BME280;69922;45.656;25.586;2024-03-07T04:48:24;95140.49;;;2.83;68.65
80568;BME280;69922;45.656;25.586;2024-03-07T04:49:33;95137.88;;;2.81;68.53
80568;BME280;69922;45.656;25.586;2024-03-07T04:50:39;95140.25;;;2.79;68.67
80568;BME280;69922;45.656;25.586;2024-03-07T04:51:46;95139.94;;;2.76;68.84
80568;BME280;69922;45.656;25.586;2024-03-07T04:52:52;95137.94;;;2.75;68.76
80568;BME280;69922;45.656;25.586;2024-03-07T04:53:59;95139.52;;;2.73;68.82
80568;BME280;69922;45.656;25.586;2024-03-07T04:55:06;95137.05;;;2.71;69.06
80568;BME280;69922;45.656;25.586;2024-03-07T04:56:20;95141.64;;;2.69;69.12
80568;BME280;69922;45.656;25.586;2024-03-07T04:57:26;95144.01;;;2.67;68.91
80568;BME280;69922;45.656;25.586;2024-03-07T04:58:33;95142.50;;;2.65;69.25
80568;BME280;69922;45.656;25.586;2024-03-07T04:59:40;95144.83;;;2.63;69.43
80568;BME280;69922;45.656;25.586;2024-03-07T05:00:47;95143.10;;;2.62;69.44
80568;BME280;69922;45.656;25.586;2024-03-07T05:01:54;95146.98;;;2.60;69.57
80568;BME280;69922;45.656;25.586;2024-03-07T05:03:00;95141.73;;;2.59;69.38
80568;BME280;69922;45.656;25.586;2024-03-07T05:04:08;95145.77;;;2.58;69.64
80568;BME280;69922;45.656;25.586;2024-03-07T05:05:15;95143.66;;;2.58;69.41
80568;BME280;69922;45.656;25.586;2024-03-07T05:06:29;95145.07;;;2.58;69.54
80568;BME280;69922;45.656;25.586;2024-03-07T05:07:36;95144.85;;;2.58;69.18
80568;BME280;69922;45.656;25.586;2024-03-07T05:08:42;95144.63;;;2.57;69.11
80568;BME280;69922;45.656;25.586;2024-03-07T05:09:52;95145.28;;;2.58;69.59
80568;BME280;69922;45.656;25.586;2024-03-07T05:10:59;95146.52;;;2.58;69.75
80568;BME280;69922;45.656;25.586;2024-03-07T05:12:07;95148.19;;;2.58;69.19
80568;BME280;69922;45.656;25.586;2024-03-07T05:13:15;95149.10;;;2.60;69.31
80568;BME280;69922;45.656;25.586;2024-03-07T05:14:22;95149.42;;;2.61;69.20
80568;BME280;69922;45.656;25.586;2024-03-07T05:15:32;95151.09;;;2.63;69.39
80568;BME280;69922;45.656;25.586;2024-03-07T05:16:38;95147.41;;;2.66;69.23
80568;BME280;69922;45.656;25.586;2024-03-07T05:17:45;95150.80;;;2.69;69.19
80568;BME280;69922;45.656;25.586;2024-03-07T05:18:52;95153.00;;;2.72;69.06
80568;BME280;69922;45.656;25.586;2024-03-07T05:19:59;95154.87;;;2.74;69.68
80568;BME280;69922;45.656;25.586;2024-03-07T05:21:06;95156.91;;;2.80;69.98
80568;BME280;69922;45.656;25.586;2024-03-07T05:22:51;95158.15;;;2.93;72.10
80568;BME280;69922;45.656;25.586;2024-03-07T05:23:58;95161.48;;;3.06;72.58
80568;BME280;69922;45.656;25.586;2024-03-07T05:25:08;95155.02;;;3.17;71.01
80568;BME280;69922;45.656;25.586;2024-03-07T05:26:16;95155.55;;;3.28;71.95
80568;BME280;69922;45.656;25.586;2024-03-07T05:27:22;95158.79;;;3.39;71.92
80568;BME280;69922;45.656;25.586;2024-03-07T05:28:29;95154.34;;;3.50;71.51
80568;BME280;69922;45.656;25.586;2024-03-07T05:29:36;95155.62;;;3.62;71.56
80568;BME280;69922;45.656;25.586;2024-03-07T05:30:44;95159.00;;;3.72;71.29
80568;BME280;69922;45.656;25.586;2024-03-07T05:31:50;95160.32;;;3.84;71.02
80568;BME280;69922;45.656;25.586;2024-03-07T05:32:58;95155.70;;;3.93;69.74
80568;BME280;69922;45.656;25.586;2024-03-07T05:34:07;95161.65;;;4.01;69.42
80568;BME280;69922;45.656;25.586;2024-03-07T05:35:16;95160.71;;;4.10;70.59
80568;BME280;69922;45.656;25.586;2024-03-07T05:36:27;95160.52;;;4.20;69.63
80568;BME280;69922;45.656;25.586;2024-03-07T05:37:34;95163.14;;;4.29;69.06
80568;BME280;69922;45.656;25.586;2024-03-07T05:38:42;95160.51;;;4.38;69.61
80568;BME280;69922;45.656;25.586;2024-03-07T05:39:52;95163.16;;;4.49;69.71
80568;BME280;69922;45.656;25.586;2024-03-07T05:40:59;95160.04;;;4.59;68.94
80568;BME280;69922;45.656;25.586;2024-03-07T05:42:06;95160.73;;;4.69;68.93
80568;BME280;69922;45.656;25.586;2024-03-07T05:43:13;95162.11;;;4.77;68.12
80568;BME280;69922;45.656;25.586;2024-03-07T05:44:20;95161.80;;;4.85;68.80
80568;BME280;69922;45.656;25.586;2024-03-07T05:45:28;95163.80;;;4.94;67.98
80568;BME280;69922;45.656;25.586;2024-03-07T05:46:35;95164.17;;;5.04;68.17
80568;BME280;69922;45.656;25.586;2024-03-07T05:47:42;95167.70;;;5.12;67.72
80568;BME280;69922;45.656;25.586;2024-03-07T05:48:49;95168.20;;;5.20;67.63
80568;BME280;69922;45.656;25.586;2024-03-07T05:49:58;95168.48;;;5.28;67.03
80568;BME280;69922;45.656;25.586;2024-03-07T05:51:06;95171.41;;;5.36;67.04
80568;BME280;69922;45.656;25.586;2024-03-07T05:52:13;95169.41;;;5.44;66.56
80568;BME280;69922;45.656;25.586;2024-03-07T05:53:20;95169.44;;;5.49;66.37
80568;BME280;69922;45.656;25.586;2024-03-07T05:54:28;95171.39;;;5.57;66.34
80568;BME280;69922;45.656;25.586;2024-03-07T05:55:36;95167.30;;;5.62;65.98
80568;BME280;69922;45.656;25.586;2024-03-07T05:56:43;95169.39;;;5.68;65.88
80568;BME280;69922;45.656;25.586;2024-03-07T05:57:50;95171.48;;;5.73;65.28
80568;BME280;69922;45.656;25.586;2024-03-07T05:58:57;95169.23;;;5.77;65.56